Time;durP1;ratioP1;P1;durP2;ratioP2;P2;SDS_P1;SDS_P2;PMS_P1;PMS_P2;Temp;Humidity;BMP_temperature;BMP_pressure;BME280_temperature;BME280_humidity;BME280_pressure;Samples;Min_cycle;Max_cycle;Signal;HPM_P1;HPM_P2
2023/08/06 00:00:27;;;;;;;;;;;;;;;15.82;100.00;100797.75;21081090;28;19928;-61
2023/08/06 00:10:49;;;;;;;;;;;;;;;15.84;100.00;100800.31;21093692;27;19953;-61
2023/08/06 00:21:12;;;;;;;;;;;;;;;15.80;100.00;100785.72;21079218;28;20027;-61
2023/08/06 00:31:33;;;;;;;;;;;;;;;15.74;100.00;100778.19;21100534;28;19964;-61
2023/08/06 00:41:55;;;;;;;;;;;;;;;15.77;100.00;100775.41;21087181;27;19954;-62
2023/08/06 00:52:16;;;;;;;;;;;;;;;15.79;100.00;100782.25;21080980;28;19928;-61
2023/08/06 01:02:38;;;;;;;;;;;;;;;15.78;100.00;100784.94;21078915;28;19931;-61
2023/08/06 01:13:03;;;;;;;;;;;;;;;15.73;100.00;100766.09;21118147;27;19923;-61
2023/08/06 01:23:24;;;;;;;;;;;;;;;15.77;100.00;100752.78;21095442;27;19931;-61
2023/08/06 01:33:48;;;;;;;;;;;;;;;15.75;100.00;100756.38;21101423;27;20292;-61
2023/08/06 01:44:10;;;;;;;;;;;;;;;15.77;100.00;100738.88;21084251;28;19924;-61
2023/08/06 01:54:31;;;;;;;;;;;;;;;15.74;100.00;100731.25;21078956;27;19925;-61
2023/08/06 02:04:53;;;;;;;;;;;;;;;15.72;100.00;100727.88;21095570;28;19943;-60
2023/08/06 02:15:14;;;;;;;;;;;;;;;15.73;100.00;100719.13;21089594;28;20311;-61
2023/08/06 02:25:36;;;;;;;;;;;;;;;15.71;100.00;100715.75;21071532;28;19924;-61
2023/08/06 02:36:00;;;;;;;;;;;;;;;15.70;100.00;100714.06;21072836;28;20413;-61
2023/08/06 02:46:21;;;;;;;;;;;;;;;15.71;100.00;100705.31;21086621;28;20010;-61
2023/08/06 02:56:44;;;;;;;;;;;;;;;15.66;100.00;100702.09;21100249;27;19934;-60
2023/08/06 03:07:06;;;;;;;;;;;;;;;15.63;100.00;100676.16;21096671;28;19928;-61
2023/08/06 03:17:27;;;;;;;;;;;;;;;15.62;100.00;100667.50;21108290;27;19928;-61
2023/08/06 03:27:49;;;;;;;;;;;;;;;15.56;100.00;100664.38;21076719;27;19928;-60
2023/08/06 03:38:10;;;;;;;;;;;;;;;15.53;100.00;100643.69;21102882;28;21422;-60
2023/08/06 03:48:32;;;;;;;;;;;;;;;15.50;100.00;100634.25;21093401;28;19928;-61
2023/08/06 03:58:53;;;;;;;;;;;;;;;15.44;100.00;100633.75;21103838;28;19924;-61
2023/08/06 04:09:14;;;;;;;;;;;;;;;15.46;100.00;100627.50;21099832;28;20023;-61
2023/08/06 04:19:36;;;;;;;;;;;;;;;15.43;100.00;100638.13;21098090;28;19919;-61
2023/08/06 04:29:58;;;;;;;;;;;;;;;15.46;100.00;100642.31;21103263;27;19920;-61
2023/08/06 04:40:19;;;;;;;;;;;;;;;15.43;100.00;100642.47;21091213;27;19930;-61
2023/08/06 04:50:47;;;;;;;;;;;;;;;15.39;100.00;100635.69;21084421;28;19927;-61
2023/08/06 05:01:09;;;;;;;;;;;;;;;15.37;100.00;100642.75;21092923;28;19924;-61
2023/08/06 05:11:30;;;;;;;;;;;;;;;15.41;100.00;100644.31;21080658;27;19923;-61
2023/08/06 05:21:52;;;;;;;;;;;;;;;15.50;100.00;100641.22;21094286;27;19920;-61
2023/08/06 05:32:14;;;;;;;;;;;;;;;15.56;100.00;100640.91;21091124;27;19927;-61
2023/08/06 05:42:35;;;;;;;;;;;;;;;15.63;100.00;100642.25;21084627;27;19985;-60
2023/08/06 05:52:57;;;;;;;;;;;;;;;15.66;100.00;100649.91;21087615;28;19930;-60
2023/08/06 06:03:22;;;;;;;;;;;;;;;15.68;100.00;100653.28;21087403;27;19988;-61
2023/08/06 06:13:43;;;;;;;;;;;;;;;15.80;100.00;100652.63;21090464;28;19927;-61
2023/08/06 06:24:05;;;;;;;;;;;;;;;15.82;100.00;100646.38;21104895;28;20384;-61
2023/08/06 06:34:27;;;;;;;;;;;;;;;15.87;100.00;100649.63;21100301;27;19920;-61
2023/08/06 06:44:48;;;;;;;;;;;;;;;15.94;100.00;100655.31;21110752;27;19928;-61
2023/08/06 06:55:10;;;;;;;;;;;;;;;15.95;100.00;100649.19;21103971;27;19928;-61
2023/08/06 07:05:32;;;;;;;;;;;;;;;16.14;100.00;100662.91;21099533;28;20398;-61
2023/08/06 07:15:54;;;;;;;;;;;;;;;16.18;100.00;100663.56;21102121;28;19920;-61
2023/08/06 07:26:16;;;;;;;;;;;;;;;16.27;100.00;100648.25;21096809;27;19919;-61
2023/08/06 07:36:38;;;;;;;;;;;;;;;16.37;100.00;100654.59;21086317;27;19923;-61
2023/08/06 07:46:59;;;;;;;;;;;;;;;16.48;100.00;100672.34;21088562;28;19924;-60
2023/08/06 07:57:21;;;;;;;;;;;;;;;16.79;100.00;100667.03;21104170;27;19919;-61
2023/08/06 08:07:42;;;;;;;;;;;;;;;17.02;100.00;100662.16;21101635;27;19926;-60
2023/08/06 08:18:04;;;;;;;;;;;;;;;16.95;100.00;100663.44;21093212;28;20307;-61
2023/08/06 08:28:25;;;;;;;;;;;;;;;17.05;100.00;100648.88;21096620;27;19926;-61
2023/08/06 08:38:47;;;;;;;;;;;;;;;17.11;100.00;100652.91;21111939;28;20249;-61
2023/08/06 08:49:08;;;;;;;;;;;;;;;17.17;100.00;100625.53;21096246;27;19926;-60
2023/08/06 08:59:30;;;;;;;;;;;;;;;17.37;100.00;100625.19;21111614;27;20022;-60
2023/08/06 09:09:52;;;;;;;;;;;;;;;17.49;100.00;100627.09;21088689;27;20002;-60
2023/08/06 09:20:14;;;;;;;;;;;;;;;17.73;99.74;100621.16;21086302;28;19943;-61
2023/08/06 09:30:37;;;;;;;;;;;;;;;17.96;98.06;100606.63;21094273;27;19932;-60
2023/08/06 09:40:58;;;;;;;;;;;;;;;18.14;97.19;100621.16;21082852;28;20380;-60
2023/08/06 09:51:20;;;;;;;;;;;;;;;18.47;91.75;100624.22;21102123;28;19927;-60
2023/08/06 10:01:41;;;;;;;;;;;;;;;18.62;92.67;100623.22;21107946;27;19930;-60
2023/08/06 10:12:03;;;;;;;;;;;;;;;18.81;92.61;100613.16;21083863;28;19930;-61
2023/08/06 10:22:25;;;;;;;;;;;;;;;19.04;91.07;100619.50;21087430;28;20658;-60
2023/08/06 10:32:48;;;;;;;;;;;;;;;19.42;88.50;100609.84;21088431;28;19962;-60
2023/08/06 10:43:24;;;;;;;;;;;;;;;19.59;87.51;100609.50;21082094;28;20654;-61
2023/08/06 10:53:47;;;;;;;;;;;;;;;19.56;87.68;100600.97;21106062;28;19923;-60
2023/08/06 11:04:09;;;;;;;;;;;;;;;19.98;86.50;100584.75;21087157;28;19927;-60
2023/08/06 11:14:30;;;;;;;;;;;;;;;20.32;83.99;100586.66;21092675;27;20241;-61
2023/08/06 11:24:53;;;;;;;;;;;;;;;20.52;84.64;100577.25;21088443;27;20505;-61
2023/08/06 11:35:15;;;;;;;;;;;;;;;20.37;84.91;100576.63;21094851;27;19920;-61
2023/08/06 11:45:37;;;;;;;;;;;;;;;20.53;83.34;100585.03;21099211;27;20005;-60
2023/08/06 11:55:58;;;;;;;;;;;;;;;20.29;83.04;100578.97;21098677;27;19923;-60
2023/08/06 12:06:19;;;;;;;;;;;;;;;20.78;81.09;100584.03;21095108;27;19919;-61
2023/08/06 12:16:41;;;;;;;;;;;;;;;21.02;79.54;100565.56;21064982;22;19924;-62
2023/08/06 12:27:03;;;;;;;;;;;;;;;21.15;80.39;100555.75;21014400;28;19924;-62
2023/08/06 12:37:25;;;;;;;;;;;;;;;20.78;78.14;100563.84;21010718;28;19932;-62
2023/08/06 12:47:47;;;;;;;;;;;;;;;20.52;79.48;100557.06;20998108;28;19985;-62
2023/08/06 12:58:08;;;;;;;;;;;;;;;20.59;80.66;100550.41;20984646;28;20326;-61
2023/08/06 13:08:30;;;;;;;;;;;;;;;20.65;77.52;100542.03;21004252;28;19935;-61
2023/08/06 13:18:51;;;;;;;;;;;;;;;20.55;80.70;100562.09;20993676;28;19920;-61
2023/08/06 13:29:13;;;;;;;;;;;;;;;20.60;80.60;100559.94;21003415;28;20615;-62
2023/08/06 13:39:34;;;;;;;;;;;;;;;20.73;78.78;100558.06;20999441;28;19929;-62
2023/08/06 13:49:55;;;;;;;;;;;;;;;20.57;79.13;100562.81;21008185;28;19927;-62
2023/08/06 14:00:17;;;;;;;;;;;;;;;20.46;80.60;100557.53;20988872;28;20380;-62
2023/08/06 14:10:38;;;;;;;;;;;;;;;20.57;81.87;100565.44;21004443;28;20288;-62
2023/08/06 14:21:00;;;;;;;;;;;;;;;20.53;81.80;100565.81;21007168;28;19939;-61
2023/08/06 14:31:21;;;;;;;;;;;;;;;20.59;81.28;100573.22;20996630;28;20454;-62
2023/08/06 14:41:43;;;;;;;;;;;;;;;20.61;79.72;100577.41;21002247;28;20453;-62
2023/08/06 14:52:05;;;;;;;;;;;;;;;20.87;80.04;100568.38;21032630;28;20010;-62
2023/08/06 15:02:27;;;;;;;;;;;;;;;20.81;79.83;100582.00;21030312;28;19935;-63
2023/08/06 15:12:49;;;;;;;;;;;;;;;20.78;81.13;100587.50;21012262;28;20022;-62
2023/08/06 15:23:10;;;;;;;;;;;;;;;20.58;81.15;100598.69;21012836;28;20387;-62
2023/08/06 15:33:32;;;;;;;;;;;;;;;20.87;79.79;100599.13;21005686;28;19920;-62
2023/08/06 15:43:53;;;;;;;;;;;;;;;20.90;78.78;100612.88;21027466;28;19920;-62
2023/08/06 15:54:15;;;;;;;;;;;;;;;20.62;80.01;100621.16;20998918;28;19935;-62
2023/08/06 16:04:36;;;;;;;;;;;;;;;20.85;76.90;100632.59;21025877;28;19924;-62
2023/08/06 16:14:58;;;;;;;;;;;;;;;21.10;75.40;100629.78;20999114;28;19920;-62
2023/08/06 16:25:19;;;;;;;;;;;;;;;21.09;76.75;100637.81;20999971;28;19923;-62
2023/08/06 16:35:41;;;;;;;;;;;;;;;21.37;77.10;100647.91;21005138;28;20018;-62
2023/08/06 16:46:02;;;;;;;;;;;;;;;20.99;78.02;100654.31;20990829;28;19924;-62
2023/08/06 16:56:24;;;;;;;;;;;;;;;21.30;78.84;100659.88;20992510;28;19924;-62
2023/08/06 17:06:47;;;;;;;;;;;;;;;21.13;79.14;100669.06;21008500;28;19924;-62
2023/08/06 17:17:08;;;;;;;;;;;;;;;20.73;80.21;100670.34;20956708;28;1795968;-62
2023/08/06 17:27:31;;;;;;;;;;;;;;;20.48;81.08;100681.81;21016610;28;19928;-62
2023/08/06 17:37:53;;;;;;;;;;;;;;;20.36;81.90;100698.50;21005381;28;20462;-62
2023/08/06 17:48:15;;;;;;;;;;;;;;;20.15;82.30;100705.25;21004664;28;20387;-62
2023/08/06 17:58:37;;;;;;;;;;;;;;;19.98;82.29;100709.09;21035327;28;19952;-62
2023/08/06 18:08:58;;;;;;;;;;;;;;;19.86;81.26;100709.13;20997193;28;19924;-62
2023/08/06 18:19:19;;;;;;;;;;;;;;;19.74;79.26;100728.38;20991938;28;19935;-62
2023/08/06 18:29:41;;;;;;;;;;;;;;;19.64;81.13;100732.56;20996790;28;19924;-62
2023/08/06 18:40:03;;;;;;;;;;;;;;;19.56;81.54;100743.59;21001187;28;19924;-62
2023/08/06 18:50:24;;;;;;;;;;;;;;;19.58;81.39;100759.22;20996023;28;19924;-62
2023/08/06 19:00:46;;;;;;;;;;;;;;;19.45;82.14;100753.97;21000453;28;19932;-62
2023/08/06 19:11:08;;;;;;;;;;;;;;;19.39;82.28;100769.31;21018286;28;19932;-62
2023/08/06 19:21:29;;;;;;;;;;;;;;;19.27;83.18;100765.69;20993373;28;19931;-62
2023/08/06 19:31:51;;;;;;;;;;;;;;;19.09;84.75;100777.41;20992286;28;19928;-62
2023/08/06 19:42:15;;;;;;;;;;;;;;;18.93;84.32;100768.88;21028654;28;19935;-62
2023/08/06 19:52:37;;;;;;;;;;;;;;;18.87;84.06;100764.88;21017534;28;19932;-62
2023/08/06 20:02:58;;;;;;;;;;;;;;;18.80;84.52;100763.59;21017350;28;19931;-62
2023/08/06 20:13:20;;;;;;;;;;;;;;;18.68;84.25;100759.13;21008479;28;19924;-62
2023/08/06 20:23:41;;;;;;;;;;;;;;;18.68;84.50;100756.50;21013656;28;20295;-62
2023/08/06 20:34:03;;;;;;;;;;;;;;;18.56;85.19;100761.69;20996624;28;20296;-62
2023/08/06 20:44:26;;;;;;;;;;;;;;;18.55;85.60;100768.72;21009786;28;19924;-62
2023/08/06 20:54:48;;;;;;;;;;;;;;;18.45;86.04;100778.09;21016372;28;20032;-62
2023/08/06 21:05:09;;;;;;;;;;;;;;;18.36;86.24;100783.03;21008343;28;20501;-62
2023/08/06 21:15:31;;;;;;;;;;;;;;;18.30;86.56;100800.00;21012975;28;19932;-62
2023/08/06 21:25:56;;;;;;;;;;;;;;;18.14;86.78;100809.75;20999162;28;19932;-62
2023/08/06 21:36:18;;;;;;;;;;;;;;;18.05;88.23;100805.91;20998450;28;19977;-62
2023/08/06 21:46:40;;;;;;;;;;;;;;;18.01;88.62;100809.66;21011756;28;19978;-62
2023/08/06 21:57:02;;;;;;;;;;;;;;;18.00;89.57;100822.84;21001000;28;19924;-62
2023/08/06 22:07:23;;;;;;;;;;;;;;;17.95;93.14;100830.97;21014822;28;19931;-63
2023/08/06 22:17:45;;;;;;;;;;;;;;;17.77;97.48;100842.53;20991132;28;19925;-64
2023/08/06 22:28:06;;;;;;;;;;;;;;;17.60;97.89;100828.78;20991493;28;19932;-64
2023/08/06 22:38:28;;;;;;;;;;;;;;;17.47;97.22;100827.78;20989181;28;20016;-63
2023/08/06 22:48:49;;;;;;;;;;;;;;;17.30;96.54;100835.75;21010178;28;19959;-63
2023/08/06 22:59:11;;;;;;;;;;;;;;;17.17;97.28;100824.31;21012019;28;19932;-63
2023/08/06 23:09:32;;;;;;;;;;;;;;;17.07;99.15;100827.44;21018036;28;19931;-63
2023/08/06 23:19:56;;;;;;;;;;;;;;;16.98;98.37;100825.34;21033170;28;20437;-63
2023/08/06 23:30:17;;;;;;;;;;;;;;;16.91;98.60;100825.78;21018377;28;20053;-63
2023/08/06 23:40:39;;;;;;;;;;;;;;;16.75;95.88;100825.81;21012722;28;19928;-62
2023/08/06 23:51:00;;;;;;;;;;;;;;;16.58;96.18;100836.34;21017007;28;19935;-63
